Latest Weather Observations for Robe Airport

IDS60801

Issued at 4:02 pm CDT Monday 30 March 2015 (issued every 30 minutes, with the page automatically refreshed every 10 minutes)

About weather observations | Map of weather stations | Latest weather observations for SA | Other Formats
Station Details ID: 026105 Name: ROBE AIRFIELD Lat: -37.18 Lon: 139.81 Height: 3.0 m
Data from the previous 72 hours. | See also: Recent months at Robe Airport
Date/Time
CDT
Temp
°C
App
Temp
°C
Dew
Point
Rel
Hum
%
Delta-T
°C
Wind Press
QNH
hPa
Press
MSL
hPa
Rain
since 9 am
mm
Dir
 
Spd
km/h
Gust
km/h
Spd
kts
Gust
kts
30/04:00pm 20.5 18.7 15.5 73 3.0 NW 19 22 10 12 1024.7 1024.7 0.0
30/03:30pm 21.4 20.2 15.0 67 3.8 NW 15 22 8 12 1024.8 1024.8 0.0
30/03:00pm 21.1 19.3 15.4 70 3.4 NW 19 24 10 13 1024.9 1024.9 0.0
30/02:30pm 21.1 19.3 15.4 70 3.4 NW 19 24 10 13 1025.0 1025.0 0.0
30/02:00pm 20.6 18.9 14.7 69 3.5 NW 17 22 9 12 1025.1 1025.1 0.0
30/01:30pm 20.2 18.0 14.8 71 3.1 NW 20 24 11 13 1025.3 1025.3 0.0
30/01:00pm 20.7 19.1 15.0 70 3.4 NW 17 22 9 12 1025.5 1025.5 0.0
30/12:30pm 20.9 19.8 15.2 70 3.4 NW 15 22 8 12 1025.7 1025.7 0.0
30/12:00pm 20.0 18.3 14.6 71 3.1 NW 17 20 9 11 1025.8 1025.8 0.0
30/11:30am 19.3 18.0 14.8 75 2.6 NNW 15 19 8 10 1025.8 1025.8 0.0
30/11:00am 19.5 19.0 15.0 75 2.6 NW 11 17 6 9 1025.9 1025.9 0.0
30/10:30am 18.1 18.5 15.4 84 1.6 NW 7 15 4 8 1026.0 1026.0 0.0
30/10:00am 17.3 18.4 16.7 96 0.4 NE 6 11 3 6 1025.8 1025.8 0.0
30/09:30am 15.4 15.9 15.1 98 0.2 NNE 6 7 3 4 1025.5 1025.5 0.0
30/09:00am 14.4 15.0 14.2 99 0.1 W 4 6 2 3 1025.3 1025.3 0.0
30/08:30am 12.5 12.5 12.3 99 0.1 W 4 6 2 3 1024.9 1024.9 0.0
30/08:00am 10.6 10.8 10.4 99 0.1 CALM 0 0 0 0 1024.6 1024.6 0.0
30/07:30am 9.2 9.0 9.1 99 0.0 CALM 0 0 0 0 1024.2 1024.2 0.0
30/07:00am 8.3 7.8 8.0 98 0.1 CALM 0 0 0 0 1024.0 1024.0 0.0
30/06:30am 7.5 6.9 7.2 98 0.1 CALM 0 0 0 0 1023.6 1023.6 0.0
30/06:00am 7.8 7.2 7.5 98 0.1 CALM 0 0 0 0 1023.4 1023.4 0.0
30/05:30am 6.8 6.0 6.4 97 0.2 CALM 0 0 0 0 1023.2 1023.2 0.0
30/05:00am 7.8 7.2 7.5 98 0.1 CALM 0 0 0 0 1023.0 1023.0 0.0
30/04:30am 7.4 6.7 7.1 98 0.1 CALM 0 0 0 0 1022.9 1022.9 0.0
30/04:00am 8.0 7.5 7.7 98 0.1 CALM 0 0 0 0 1023.1 1023.1 0.0
30/03:30am 7.2 6.5 6.8 97 0.2 CALM 0 0 0 0 1023.2 1023.2 0.0
30/03:00am 7.8 7.2 7.4 97 0.2 CALM 0 0 0 0 1023.2 1023.2 0.0
30/02:30am 8.1 7.6 7.7 97 0.2 CALM 0 0 0 0 1023.3 1023.3 0.0
30/02:00am 8.1 7.5 7.5 96 0.3 CALM 0 0 0 0 1023.4 1023.4 0.0
30/01:30am 9.2 8.9 8.7 97 0.2 CALM 0 0 0 0 1023.4 1023.4 0.0
30/01:00am 8.4 7.9 7.8 96 0.3 CALM 0 0 0 0 1023.5 1023.5 0.0
30/12:30am 8.8 8.4 8.2 96 0.3 CALM 0 0 0 0 1023.5 1023.5 0.0
30/12:00am 8.4 7.8 7.6 95 0.4 CALM 0 0 0 0 1023.5 1023.5 0.0
 
Date/Time
CDT
Temp
°C
App
Temp
°C
Dew
Point
Rel
Hum
%
Delta-T
°C
Wind Press
QNH
hPa
Press
MSL
hPa
Rain
since 9 am
mm
Dir
 
Spd
km/h
Gust
km/h
Spd
kts
Gust
kts
29/11:30pm 8.9 8.5 8.1 95 0.4 CALM 0 0 0 0 1023.6 1023.6 0.0
29/11:00pm 10.4 10.3 9.6 95 0.4 CALM 0 0 0 0 1023.7 1023.7 0.0
29/10:30pm 10.1 9.9 9.2 94 0.4 CALM 0 0 0 0 1023.6 1023.6 0.0
29/10:00pm 11.2 11.3 10.1 93 0.6 CALM 0 0 0 0 1023.6 1023.6 0.0
29/09:30pm 12.2 12.6 11.1 93 0.6 CALM 0 0 0 0 1023.5 1023.5 0.0
29/09:00pm 12.5 12.5 11.1 91 0.7 W 2 2 1 1 1023.4 1023.4 0.0
29/08:30pm 13.9 14.3 12.5 91 0.8 W 2 2 1 1 1023.2 1023.2 0.0
29/08:00pm 14.9 15.4 12.9 88 1.1 W 2 2 1 1 1023.0 1023.0 0.0
29/07:30pm 16.2 16.7 14.0 87 1.2 W 4 6 2 3 1022.8 1022.8 0.0
29/07:00pm 17.1 17.3 14.2 83 1.7 W 6 9 3 5 1022.7 1022.7 0.0
29/06:30pm 18.1 18.0 15.0 82 1.8 NW 9 13 5 7 1022.5 1022.5 0.0
29/06:00pm 19.0 18.3 14.3 74 2.7 WNW 11 15 6 8 1022.4 1022.4 0.0
29/05:30pm 19.7 18.6 14.3 71 3.1 WNW 13 17 7 9 1022.3 1022.3 0.0
29/05:00pm 19.5 18.0 14.3 72 3.0 NW 15 20 8 11 1022.1 1022.1 0.0
29/04:30pm 19.7 18.0 14.7 73 2.9 NW 17 24 9 13 1022.0 1022.0 0.0
29/04:00pm 19.6 17.2 14.4 72 3.0 NW 20 28 11 15 1022.0 1022.0 0.0
29/03:30pm 20.1 17.6 14.2 69 3.4 NW 20 26 11 14 1021.9 1021.9 0.0
29/03:00pm 20.1 17.2 14.0 68 3.5 NW 22 28 12 15 1022.0 1022.0 0.0
29/02:30pm 19.8 16.7 13.5 67 3.6 NW 22 30 12 16 1022.1 1022.1 0.0
29/02:00pm 20.4 17.6 13.1 63 4.2 NW 20 28 11 15 1022.2 1022.2 0.0
29/01:30pm 20.1 17.3 13.1 64 4.0 NW 20 26 11 14 1022.4 1022.4 0.0
29/01:00pm 19.7 17.0 12.9 65 3.8 NW 19 24 10 13 1022.6 1022.6 0.0
29/12:30pm 19.9 17.0 12.9 64 3.9 NW 20 26 11 14 1022.8 1022.8 0.0
29/12:00pm 20.3 17.9 12.8 62 4.2 NW 17 24 9 13 1022.8 1022.8 0.0
29/11:30am 20.0 17.6 12.5 62 4.2 NW 17 24 9 13 1023.1 1023.1 0.0
29/11:00am 19.3 17.6 12.3 64 3.9 NNW 13 19 7 10 1023.0 1023.0 0.0
29/10:30am 17.6 15.8 12.1 70 3.0 N 13 17 7 9 1023.1 1023.1 0.0
29/10:00am 16.3 15.2 13.0 81 1.8 N 11 15 6 8 1023.1 1023.1 0.0
29/09:30am 15.1 15.1 14.1 94 0.6 N 7 13 4 7 1023.1 1023.1 0.0
29/09:00am 13.4 13.2 12.9 97 0.3 N 6 7 3 4 1022.8 1022.8 0.2
29/08:30am 11.9 12.1 11.7 99 0.1 SW 2 6 1 3 1022.6 1022.6 0.2
29/08:00am 7.6 5.8 7.3 98 0.1 NNE 6 6 3 3 1022.4 1022.4 0.2
29/07:30am 6.5 5.2 6.1 97 0.2 N 2 4 1 2 1022.3 1022.3 0.2
29/07:00am 6.5 4.9 6.2 98 0.1 N 4 6 2 3 1022.0 1022.0 0.2
29/06:30am 4.4 3.0 3.8 96 0.2 CALM 0 0 0 0 1021.9 1021.9 0.2
29/06:00am 5.0 3.8 4.4 96 0.3 CALM 0 0 0 0 1021.6 1021.6 0.2
29/05:30am 5.8 4.8 5.4 97 0.2 CALM 0 0 0 0 1021.4 1021.4 0.2
29/05:00am 6.5 5.6 6.1 97 0.2 CALM 0 0 0 0 1021.1 1021.1 0.2
29/04:30am 6.0 5.0 5.4 96 0.3 CALM 0 0 0 0 1020.9 1020.9 0.2
29/04:00am 6.3 5.4 5.9 97 0.2 CALM 0 0 0 0 1020.8 1020.8 0.2
29/03:30am 6.2 5.2 5.6 96 0.3 CALM 0 0 0 0 1021.0 1021.0 0.2
29/03:00am 6.0 5.0 5.4 96 0.3 CALM 0 0 0 0 1021.1 1021.1 0.2
29/02:30am 6.1 5.1 5.4 95 0.3 CALM 0 0 0 0 1021.3 1021.3 0.2
29/02:00am 6.8 5.9 6.1 95 0.3 CALM 0 0 0 0 1021.5 1021.5 0.2
29/01:30am 7.3 6.5 6.6 95 0.3 CALM 0 0 0 0 1021.6 1021.6 0.2
29/01:00am 7.8 7.1 7.1 95 0.3 CALM 0 0 0 0 1021.5 1021.5 0.2
29/12:30am 8.5 8.0 7.9 96 0.3 CALM 0 0 0 0 1021.6 1021.6 0.2
29/12:00am 8.0 7.4 7.2 95 0.4 CALM 0 0 0 0 1021.7 1021.7 0.2
 
Date/Time
CDT
Temp
°C
App
Temp
°C
Dew
Point
Rel
Hum
%
Delta-T
°C
Wind Press
QNH
hPa
Press
MSL
hPa
Rain
since 9 am
mm
Dir
 
Spd
km/h
Gust
km/h
Spd
kts
Gust
kts
28/11:30pm 8.2 7.6 7.3 94 0.4 CALM 0 0 0 0 1022.0 1022.0 0.2
28/11:00pm 7.5 6.7 6.3 92 0.5 CALM 0 0 0 0 1022.1 1022.1 0.2
28/10:30pm 8.2 7.5 6.8 91 0.6 CALM 0 0 0 0 1022.2 1022.2 0.2
28/10:00pm 8.9 8.3 7.4 90 0.7 CALM 0 0 0 0 1022.4 1022.4 0.2
28/09:30pm 9.4 8.9 7.7 89 0.8 CALM 0 0 0 0 1022.5 1022.5 0.2
28/09:00pm 10.6 10.2 8.4 86 1.1 CALM 0 0 0 0 1022.3 1022.3 0.2
28/08:30pm 11.6 11.3 8.6 82 1.5 CALM 0 0 0 0 1022.3 1022.3 0.2
28/08:00pm 12.7 12.0 8.4 75 2.1 SW 2 2 1 1 1021.9 1021.9 0.2
28/07:30pm 14.1 13.6 9.3 73 2.4 SW 2 2 1 1 1021.7 1021.7 0.2
28/07:00pm 15.2 13.9 9.3 68 3.0 SW 6 6 3 3 1021.7 1021.7 0.2
28/06:30pm 17.3 16.1 9.7 61 4.0 WSW 6 9 3 5 1021.7 1021.7 0.2
28/06:00pm 17.9 15.9 8.7 55 4.7 W 9 13 5 7 1021.7 1021.7 0.2
28/05:30pm 18.4 16.6 9.5 56 4.7 W 9 15 5 8 1021.9 1021.9 0.2
28/05:00pm 18.5 16.3 9.3 55 4.8 WNW 11 17 6 9 1022.1 1022.1 0.2
28/04:30pm 18.2 15.6 9.5 57 4.6 NW 13 19 7 10 1022.4 1022.4 0.2
28/04:00pm 18.9 16.2 8.8 52 5.3 NW 13 19 7 10 1022.6 1022.6 0.2
28/03:30pm 17.1 13.9 8.5 57 4.4 NW 15 24 8 13 1022.9 1022.9 0.2
28/03:00pm 18.3 15.2 8.8 54 4.9 NW 15 19 8 10 1023.3 1023.3 0.2
28/02:30pm 18.4 14.9 8.9 54 4.9 NW 17 20 9 11 1023.6 1023.6 0.2
28/02:00pm 17.1 13.4 9.3 60 4.1 NW 19 24 10 13 1024.1 1024.1 0.2
28/01:30pm 17.6 14.2 9.2 58 4.4 NW 17 24 9 13 1024.4 1024.4 0.2
28/01:00pm 17.3 14.1 8.4 56 4.6 NW 15 20 8 11 1024.6 1024.6 0.2
28/12:30pm 17.8 14.5 9.7 59 4.2 NW 17 20 9 11 1025.1 1025.1 0.2
28/12:00pm 17.9 15.0 9.5 58 4.4 NW 15 20 8 11 1025.1 1025.1 0.2
28/11:30am 17.0 14.2 8.7 58 4.2 NNW 13 19 7 10 1025.5 1025.5 0.2
28/11:00am 16.8 14.5 9.0 60 4.0 NNE 11 17 6 9 1025.8 1025.8 0.2
28/10:30am 15.7 13.4 8.9 64 3.5 NNE 11 15 6 8 1026.0 1026.0 0.0
28/10:00am 15.0 13.2 9.6 70 2.8 NNE 9 13 5 7 1026.2 1026.2 0.0
28/09:30am 14.5 12.3 9.5 72 2.6 NNE 11 15 6 8 1026.3 1026.3 0.0
28/09:00am 13.7 12.4 9.9 78 1.9 N 7 9 4 5 1026.6 1026.6 0.0
28/08:30am 13.1 12.0 10.6 85 1.3 N 7 11 4 6 1026.4 1026.4 0.0
28/08:00am 12.6 12.0 10.5 87 1.1 ENE 4 7 2 4 1025.8 1025.8 0.0
28/07:30am 12.4 11.5 10.5 88 1.0 NE 6 7 3 4 1025.5 1025.5 0.0
28/07:00am 12.4 11.3 10.5 88 1.0 NNE 7 9 4 5 1025.7 1025.7 0.0
28/06:30am 12.5 11.6 10.6 88 1.0 NE 6 6 3 3 1025.6 1025.6 0.0
28/06:00am 12.6 11.7 10.7 88 1.0 N 6 7 3 4 1025.7 1025.7 0.0
28/05:30am 12.5 11.6 10.6 88 1.0 NNE 6 7 3 4 1025.4 1025.4 0.0
28/05:00am 12.6 11.7 10.7 88 1.0 NNE 6 9 3 5 1025.3 1025.3 0.0
28/04:30am 12.4 10.9 10.6 89 0.9 NE 9 11 5 6 1025.1 1025.1 0.0
28/04:00am 12.5 12.0 10.7 89 0.9 NNE 4 6 2 3 1025.4 1025.4 0.0
28/03:30am 12.5 12.0 10.7 89 0.9 NE 4 6 2 3 1025.6 1025.6 0.0
28/03:00am 12.7 12.6 10.8 88 1.0 E 2 4 1 2 1026.1 1026.1 0.0
28/02:30am 12.7 12.2 10.8 88 1.0 E 4 4 2 2 1026.2 1026.2 0.0
28/02:00am 12.7 12.5 10.4 86 1.2 E 2 2 1 1 1026.5 1026.5 0.0
28/01:30am 12.8 12.1 10.2 84 1.3 ESE 4 6 2 3 1026.5 1026.5 0.0
28/01:00am 13.2 13.3 10.2 82 1.6 CALM 0 0 0 0 1026.5 1026.5 0.0
28/12:30am 13.3 13.3 9.7 79 1.8 CALM 0 0 0 0 1026.6 1026.6 0.0
28/12:00am 13.6 12.5 9.8 78 1.9 SSE 6 7 3 4 1026.8 1026.8 0.0
 
Date/Time
CDT
Temp
°C
App
Temp
°C
Dew
Point
Rel
Hum
%
Delta-T
°C
Wind Press
QNH
hPa
Press
MSL
hPa
Rain
since 9 am
mm
Dir
 
Spd
km/h
Gust
km/h
Spd
kts
Gust
kts
27/11:30pm 13.8 12.4 9.6 76 2.1 SSE 7 9 4 5 1026.9 1026.9 0.0
27/11:00pm 13.9 12.2 9.7 76 2.2 SSE 9 13 5 7 1027.0 1027.0 0.0
27/10:30pm 13.9 12.2 9.7 76 2.1 SSE 9 13 5 7 1027.1 1027.1 0.0
27/10:00pm 13.9 12.8 9.9 77 2.1 SSE 6 9 3 5 1027.2 1027.2 0.0
27/09:30pm 13.9 12.6 10.1 78 2.0 S 7 11 4 6 1027.4 1027.4 0.0
27/09:00pm 13.4 11.9 10.6 83 1.5 SSE 9 11 5 6 1027.3 1027.3 0.0
27/08:30pm 13.1 11.9 10.3 83 1.4 SE 7 11 4 6 1027.1 1027.1 0.0
27/08:00pm 14.2 12.2 10.2 77 2.1 SSE 11 15 6 8 1026.9 1026.9 0.0
27/07:30pm 14.4 12.0 10.2 76 2.2 S 13 17 7 9 1027.0 1027.0 0.0
27/07:00pm 14.3 11.6 10.3 77 2.1 S 15 19 8 10 1026.8 1026.8 0.0
27/06:30pm 14.6 11.2 11.4 81 1.7 S 20 28 11 15 1026.6 1026.6 0.0
27/06:00pm 15.2 12.6 10.8 75 2.3 SSW 15 20 8 11 1026.5 1026.5 0.0
27/05:30pm 15.6 12.3 10.8 73 2.5 SSW 19 24 10 13 1026.5 1026.5 0.0
27/05:00pm 16.6 13.0 10.5 67 3.2 SSW 20 26 11 14 1026.4 1026.4 0.0
27/04:30pm 16.6 13.1 10.2 66 3.4 SSW 19 24 10 13 1026.5 1026.5 0.0

Other Formats:

Comma delimited format used in spreadsheet applications
http://www.bom.gov.au/fwo/IDS60801/IDS60801.95816.axf

JavaScript Object Notation format (JSON) in row-major order
http://www.bom.gov.au/fwo/IDS60801/IDS60801.95816.json